sensor_id;sensor_type;location;lat;lon;timestamp;P1;durP1;ratioP1;P2;durP2;ratioP2
31716;SDS011;18301;51.076;17.046;2024-03-02T00:01:19;91.35;;;49.00;;
31716;SDS011;18301;51.076;17.046;2024-03-02T00:06:21;91.45;;;49.25;;
31716;SDS011;18301;51.076;17.046;2024-03-02T00:11:23;90.68;;;47.83;;
31716;SDS011;18301;51.076;17.046;2024-03-02T00:16:28;86.78;;;47.17;;
31716;SDS011;18301;51.076;17.046;2024-03-02T00:21:32;99.50;;;51.80;;
31716;SDS011;18301;51.076;17.046;2024-03-02T00:26:34;96.63;;;49.75;;
31716;SDS011;18301;51.076;17.046;2024-03-02T00:31:36;92.78;;;48.83;;
31716;SDS011;18301;51.076;17.046;2024-03-02T00:36:37;93.97;;;46.97;;
31716;SDS011;18301;51.076;17.046;2024-03-02T00:41:40;93.07;;;50.22;;
31716;SDS011;18301;51.076;17.046;2024-03-02T00:46:45;85.97;;;48.13;;
31716;SDS011;18301;51.076;17.046;2024-03-02T00:51:47;86.65;;;46.65;;
31716;SDS011;18301;51.076;17.046;2024-03-02T00:56:53;91.07;;;49.67;;
31716;SDS011;18301;51.076;17.046;2024-03-02T01:01:57;93.82;;;48.42;;
31716;SDS011;18301;51.076;17.046;2024-03-02T01:06:59;87.90;;;46.72;;
31716;SDS011;18301;51.076;17.046;2024-03-02T01:12:01;92.57;;;48.65;;
31716;SDS011;18301;51.076;17.046;2024-03-02T01:17:02;90.05;;;47.95;;
31716;SDS011;18301;51.076;17.046;2024-03-02T01:22:05;90.50;;;47.47;;
31716;SDS011;18301;51.076;17.046;2024-03-02T01:27:07;100.03;;;50.53;;
31716;SDS011;18301;51.076;17.046;2024-03-02T01:32:09;83.50;;;44.95;;
31716;SDS011;18301;51.076;17.046;2024-03-02T01:37:10;90.75;;;50.85;;
31716;SDS011;18301;51.076;17.046;2024-03-02T01:42:12;96.20;;;49.72;;
31716;SDS011;18301;51.076;17.046;2024-03-02T01:47:14;95.45;;;49.65;;
31716;SDS011;18301;51.076;17.046;2024-03-02T01:52:15;92.90;;;47.97;;
31716;SDS011;18301;51.076;17.046;2024-03-02T01:57:17;95.57;;;48.20;;
31716;SDS011;18301;51.076;17.046;2024-03-02T02:02:20;86.43;;;46.65;;
31716;SDS011;18301;51.076;17.046;2024-03-02T02:07:21;89.50;;;48.58;;
31716;SDS011;18301;51.076;17.046;2024-03-02T02:12:23;87.18;;;48.55;;
31716;SDS011;18301;51.076;17.046;2024-03-02T02:17:25;95.10;;;48.70;;
31716;SDS011;18301;51.076;17.046;2024-03-02T02:22:28;95.53;;;49.47;;
31716;SDS011;18301;51.076;17.046;2024-03-02T02:27:29;93.05;;;48.85;;
31716;SDS011;18301;51.076;17.046;2024-03-02T02:32:32;99.55;;;50.53;;
31716;SDS011;18301;51.076;17.046;2024-03-02T02:37:33;97.38;;;50.88;;
31716;SDS011;18301;51.076;17.046;2024-03-02T02:42:35;96.57;;;50.17;;
31716;SDS011;18301;51.076;17.046;2024-03-02T02:47:37;88.40;;;48.13;;
31716;SDS011;18301;51.076;17.046;2024-03-02T02:52:40;95.03;;;49.20;;
31716;SDS011;18301;51.076;17.046;2024-03-02T02:57:42;97.20;;;50.40;;
31716;SDS011;18301;51.076;17.046;2024-03-02T03:02:46;91.65;;;46.83;;
31716;SDS011;18301;51.076;17.046;2024-03-02T03:07:51;98.45;;;48.97;;
31716;SDS011;18301;51.076;17.046;2024-03-02T03:12:52;90.97;;;49.05;;
31716;SDS011;18301;51.076;17.046;2024-03-02T03:17:54;91.28;;;47.75;;
31716;SDS011;18301;51.076;17.046;2024-03-02T03:22:56;90.93;;;47.25;;
31716;SDS011;18301;51.076;17.046;2024-03-02T03:27:58;96.25;;;49.42;;
31716;SDS011;18301;51.076;17.046;2024-03-02T03:33:00;90.28;;;48.05;;
31716;SDS011;18301;51.076;17.046;2024-03-02T03:38:02;97.80;;;48.78;;
31716;SDS011;18301;51.076;17.046;2024-03-02T03:43:04;101.45;;;51.50;;
31716;SDS011;18301;51.076;17.046;2024-03-02T03:48:05;91.38;;;47.63;;
31716;SDS011;18301;51.076;17.046;2024-03-02T03:53:07;93.20;;;47.40;;
31716;SDS011;18301;51.076;17.046;2024-03-02T03:58:09;91.38;;;46.38;;
31716;SDS011;18301;51.076;17.046;2024-03-02T04:03:11;89.00;;;46.33;;
31716;SDS011;18301;51.076;17.046;2024-03-02T04:08:13;83.47;;;42.10;;
31716;SDS011;18301;51.076;17.046;2024-03-02T04:13:15;91.10;;;45.28;;
31716;SDS011;18301;51.076;17.046;2024-03-02T04:18:16;82.25;;;43.90;;
31716;SDS011;18301;51.076;17.046;2024-03-02T04:23:18;82.43;;;42.97;;
31716;SDS011;18301;51.076;17.046;2024-03-02T04:28:20;89.25;;;45.17;;
31716;SDS011;18301;51.076;17.046;2024-03-02T04:33:21;88.13;;;44.65;;
31716;SDS011;18301;51.076;17.046;2024-03-02T04:38:23;83.07;;;42.13;;
31716;SDS011;18301;51.076;17.046;2024-03-02T04:43:25;76.20;;;41.90;;
31716;SDS011;18301;51.076;17.046;2024-03-02T04:48:26;79.28;;;42.30;;
31716;SDS011;18301;51.076;17.046;2024-03-02T04:53:28;76.95;;;40.65;;
31716;SDS011;18301;51.076;17.046;2024-03-02T04:58:30;80.07;;;41.08;;
31716;SDS011;18301;51.076;17.046;2024-03-02T05:03:32;78.78;;;41.45;;
31716;SDS011;18301;51.076;17.046;2024-03-02T05:08:36;78.38;;;41.60;;
31716;SDS011;18301;51.076;17.046;2024-03-02T05:13:37;79.53;;;41.55;;
31716;SDS011;18301;51.076;17.046;2024-03-02T05:18:39;78.38;;;39.75;;
31716;SDS011;18301;51.076;17.046;2024-03-02T05:23:41;74.65;;;40.45;;
31716;SDS011;18301;51.076;17.046;2024-03-02T05:28:42;78.60;;;40.83;;
31716;SDS011;18301;51.076;17.046;2024-03-02T05:33:44;78.28;;;41.17;;
31716;SDS011;18301;51.076;17.046;2024-03-02T05:38:46;80.10;;;40.67;;
31716;SDS011;18301;51.076;17.046;2024-03-02T05:43:47;79.50;;;41.22;;
31716;SDS011;18301;51.076;17.046;2024-03-02T05:48:50;85.25;;;43.08;;
31716;SDS011;18301;51.076;17.046;2024-03-02T05:53:51;84.55;;;41.70;;
31716;SDS011;18301;51.076;17.046;2024-03-02T05:58:53;77.00;;;41.25;;
31716;SDS011;18301;51.076;17.046;2024-03-02T06:03:55;76.93;;;41.35;;
31716;SDS011;18301;51.076;17.046;2024-03-02T06:08:57;76.25;;;39.85;;
31716;SDS011;18301;51.076;17.046;2024-03-02T06:14:00;85.68;;;43.10;;
31716;SDS011;18301;51.076;17.046;2024-03-02T06:19:01;80.40;;;42.50;;
31716;SDS011;18301;51.076;17.046;2024-03-02T06:24:04;79.05;;;40.83;;
31716;SDS011;18301;51.076;17.046;2024-03-02T06:29:06;79.30;;;40.63;;
31716;SDS011;18301;51.076;17.046;2024-03-02T06:34:09;77.72;;;40.03;;
31716;SDS011;18301;51.076;17.046;2024-03-02T06:39:10;79.00;;;41.22;;
31716;SDS011;18301;51.076;17.046;2024-03-02T06:44:13;76.50;;;41.63;;
31716;SDS011;18301;51.076;17.046;2024-03-02T06:49:15;81.43;;;40.90;;
31716;SDS011;18301;51.076;17.046;2024-03-02T06:54:19;76.88;;;40.75;;
31716;SDS011;18301;51.076;17.046;2024-03-02T06:59:21;79.00;;;41.05;;
31716;SDS011;18301;51.076;17.046;2024-03-02T07:04:22;77.15;;;40.40;;
31716;SDS011;18301;51.076;17.046;2024-03-02T07:09:24;78.93;;;40.45;;
31716;SDS011;18301;51.076;17.046;2024-03-02T07:14:27;71.45;;;40.50;;
31716;SDS011;18301;51.076;17.046;2024-03-02T07:19:48;73.57;;;40.47;;
31716;SDS011;18301;51.076;17.046;2024-03-02T07:24:50;72.80;;;39.85;;
31716;SDS011;18301;51.076;17.046;2024-03-02T07:29:52;72.88;;;40.10;;
31716;SDS011;18301;51.076;17.046;2024-03-02T07:34:54;75.78;;;39.85;;
31716;SDS011;18301;51.076;17.046;2024-03-02T07:39:56;71.47;;;38.85;;
31716;SDS011;18301;51.076;17.046;2024-03-02T07:44:59;67.20;;;37.05;;
31716;SDS011;18301;51.076;17.046;2024-03-02T07:50:01;74.32;;;39.65;;
31716;SDS011;18301;51.076;17.046;2024-03-02T07:55:04;74.43;;;41.75;;
31716;SDS011;18301;51.076;17.046;2024-03-02T08:00:06;76.57;;;39.90;;
31716;SDS011;18301;51.076;17.046;2024-03-02T08:05:08;71.22;;;38.72;;
31716;SDS011;18301;51.076;17.046;2024-03-02T08:10:10;69.38;;;38.08;;
31716;SDS011;18301;51.076;17.046;2024-03-02T08:15:13;69.30;;;36.70;;
31716;SDS011;18301;51.076;17.046;2024-03-02T08:20:14;70.38;;;38.72;;
31716;SDS011;18301;51.076;17.046;2024-03-02T08:25:16;67.60;;;38.22;;
31716;SDS011;18301;51.076;17.046;2024-03-02T08:30:18;63.47;;;34.50;;
31716;SDS011;18301;51.076;17.046;2024-03-02T08:35:20;66.35;;;37.78;;
31716;SDS011;18301;51.076;17.046;2024-03-02T08:40:23;65.32;;;37.13;;
31716;SDS011;18301;51.076;17.046;2024-03-02T08:45:25;62.88;;;36.53;;
31716;SDS011;18301;51.076;17.046;2024-03-02T08:50:27;68.80;;;35.58;;
31716;SDS011;18301;51.076;17.046;2024-03-02T08:55:28;63.83;;;36.30;;
31716;SDS011;18301;51.076;17.046;2024-03-02T09:00:30;67.50;;;35.80;;
31716;SDS011;18301;51.076;17.046;2024-03-02T09:05:32;61.08;;;36.05;;
31716;SDS011;18301;51.076;17.046;2024-03-02T09:10:34;60.30;;;34.97;;
31716;SDS011;18301;51.076;17.046;2024-03-02T09:15:36;61.70;;;34.30;;
31716;SDS011;18301;51.076;17.046;2024-03-02T09:20:39;57.47;;;31.85;;
31716;SDS011;18301;51.076;17.046;2024-03-02T09:25:40;59.90;;;32.83;;
31716;SDS011;18301;51.076;17.046;2024-03-02T09:30:42;61.53;;;33.97;;
31716;SDS011;18301;51.076;17.046;2024-03-02T09:35:44;57.60;;;32.78;;
31716;SDS011;18301;51.076;17.046;2024-03-02T09:40:46;54.72;;;31.83;;
31716;SDS011;18301;51.076;17.046;2024-03-02T09:45:47;55.38;;;31.58;;
31716;SDS011;18301;51.076;17.046;2024-03-02T09:50:50;55.70;;;31.08;;
31716;SDS011;18301;51.076;17.046;2024-03-02T09:55:51;48.05;;;27.95;;
31716;SDS011;18301;51.076;17.046;2024-03-02T10:00:53;50.20;;;28.70;;
31716;SDS011;18301;51.076;17.046;2024-03-02T10:05:55;48.97;;;28.40;;
31716;SDS011;18301;51.076;17.046;2024-03-02T10:10:57;53.45;;;31.02;;
31716;SDS011;18301;51.076;17.046;2024-03-02T10:15:59;48.10;;;29.00;;
31716;SDS011;18301;51.076;17.046;2024-03-02T10:21:13;45.72;;;27.58;;
31716;SDS011;18301;51.076;17.046;2024-03-02T10:26:16;41.67;;;24.42;;
31716;SDS011;18301;51.076;17.046;2024-03-02T10:31:20;46.08;;;27.33;;
31716;SDS011;18301;51.076;17.046;2024-03-02T10:36:28;38.95;;;23.92;;
31716;SDS011;18301;51.076;17.046;2024-03-02T10:41:36;43.30;;;25.75;;
31716;SDS011;18301;51.076;17.046;2024-03-02T10:46:39;38.13;;;22.00;;
31716;SDS011;18301;51.076;17.046;2024-03-02T10:51:41;38.83;;;23.70;;
31716;SDS011;18301;51.076;17.046;2024-03-02T10:56:43;50.55;;;27.67;;
31716;SDS011;18301;51.076;17.046;2024-03-02T11:01:48;46.63;;;26.88;;
31716;SDS011;18301;51.076;17.046;2024-03-02T11:06:51;45.40;;;27.30;;
31716;SDS011;18301;51.076;17.046;2024-03-02T11:17:29;44.25;;;24.80;;
31716;SDS011;18301;51.076;17.046;2024-03-02T11:22:32;42.13;;;24.00;;
31716;SDS011;18301;51.076;17.046;2024-03-02T11:32:54;38.92;;;22.27;;
31716;SDS011;18301;51.076;17.046;2024-03-02T11:37:56;34.67;;;21.27;;
31716;SDS011;18301;51.076;17.046;2024-03-02T11:43:00;36.40;;;20.88;;
31716;SDS011;18301;51.076;17.046;2024-03-02T11:48:04;37.38;;;21.70;;
31716;SDS011;18301;51.076;17.046;2024-03-02T11:53:07;34.95;;;19.83;;
31716;SDS011;18301;51.076;17.046;2024-03-02T11:58:11;40.25;;;21.35;;
31716;SDS011;18301;51.076;17.046;2024-03-02T12:03:13;38.10;;;22.02;;
31716;SDS011;18301;51.076;17.046;2024-03-02T12:08:16;35.47;;;21.70;;
31716;SDS011;18301;51.076;17.046;2024-03-02T12:13:18;35.75;;;20.98;;
31716;SDS011;18301;51.076;17.046;2024-03-02T12:18:20;30.83;;;18.20;;
31716;SDS011;18301;51.076;17.046;2024-03-02T12:23:21;35.13;;;21.67;;
31716;SDS011;18301;51.076;17.046;2024-03-02T12:28:23;29.85;;;19.60;;
31716;SDS011;18301;51.076;17.046;2024-03-02T12:33:25;28.45;;;16.98;;
31716;SDS011;18301;51.076;17.046;2024-03-02T12:38:29;35.47;;;19.60;;
31716;SDS011;18301;51.076;17.046;2024-03-02T12:43:31;34.28;;;19.08;;
31716;SDS011;18301;51.076;17.046;2024-03-02T12:48:33;31.30;;;20.10;;
31716;SDS011;18301;51.076;17.046;2024-03-02T12:53:36;33.28;;;19.38;;
31716;SDS011;18301;51.076;17.046;2024-03-02T12:58:39;34.60;;;20.08;;
31716;SDS011;18301;51.076;17.046;2024-03-02T13:03:42;32.40;;;20.30;;
31716;SDS011;18301;51.076;17.046;2024-03-02T13:08:44;31.48;;;18.83;;
31716;SDS011;18301;51.076;17.046;2024-03-02T13:13:46;31.77;;;20.52;;
31716;SDS011;18301;51.076;17.046;2024-03-02T13:18:48;34.38;;;19.67;;
31716;SDS011;18301;51.076;17.046;2024-03-02T13:23:50;30.73;;;18.98;;
31716;SDS011;18301;51.076;17.046;2024-03-02T13:28:52;31.88;;;19.95;;
31716;SDS011;18301;51.076;17.046;2024-03-02T13:33:54;31.80;;;19.00;;
31716;SDS011;18301;51.076;17.046;2024-03-02T13:38:55;28.67;;;18.80;;
31716;SDS011;18301;51.076;17.046;2024-03-02T13:43:59;31.88;;;20.15;;
31716;SDS011;18301;51.076;17.046;2024-03-02T13:49:02;30.58;;;19.40;;
31716;SDS011;18301;51.076;17.046;2024-03-02T13:54:04;28.67;;;18.10;;
31716;SDS011;18301;51.076;17.046;2024-03-02T13:59:07;28.58;;;18.55;;
31716;SDS011;18301;51.076;17.046;2024-03-02T14:04:09;28.00;;;16.95;;
31716;SDS011;18301;51.076;17.046;2024-03-02T14:09:11;34.17;;;18.50;;
31716;SDS011;18301;51.076;17.046;2024-03-02T14:14:13;28.38;;;18.55;;
31716;SDS011;18301;51.076;17.046;2024-03-02T14:19:15;30.00;;;18.38;;
31716;SDS011;18301;51.076;17.046;2024-03-02T14:24:16;27.90;;;16.58;;
31716;SDS011;18301;51.076;17.046;2024-03-02T14:29:18;36.60;;;19.67;;
31716;SDS011;18301;51.076;17.046;2024-03-02T14:34:20;37.33;;;20.95;;
31716;SDS011;18301;51.076;17.046;2024-03-02T14:39:22;31.80;;;19.27;;
31716;SDS011;18301;51.076;17.046;2024-03-02T14:44:24;37.80;;;21.90;;
31716;SDS011;18301;51.076;17.046;2024-03-02T14:49:26;41.15;;;23.58;;
31716;SDS011;18301;51.076;17.046;2024-03-02T14:54:28;38.45;;;21.58;;
31716;SDS011;18301;51.076;17.046;2024-03-02T14:59:30;37.08;;;22.20;;
31716;SDS011;18301;51.076;17.046;2024-03-02T15:04:32;39.58;;;21.52;;
31716;SDS011;18301;51.076;17.046;2024-03-02T15:09:33;36.17;;;21.02;;
31716;SDS011;18301;51.076;17.046;2024-03-02T15:14:37;34.03;;;21.77;;
31716;SDS011;18301;51.076;17.046;2024-03-02T15:19:39;35.08;;;21.15;;
31716;SDS011;18301;51.076;17.046;2024-03-02T15:24:41;36.22;;;21.67;;
31716;SDS011;18301;51.076;17.046;2024-03-02T15:29:43;35.03;;;21.23;;
31716;SDS011;18301;51.076;17.046;2024-03-02T15:34:44;37.65;;;21.00;;
31716;SDS011;18301;51.076;17.046;2024-03-02T15:39:46;38.10;;;22.65;;
31716;SDS011;18301;51.076;17.046;2024-03-02T15:44:48;37.17;;;21.25;;
31716;SDS011;18301;51.076;17.046;2024-03-02T15:49:50;45.40;;;23.55;;
31716;SDS011;18301;51.076;17.046;2024-03-02T15:54:52;45.38;;;23.77;;
31716;SDS011;18301;51.076;17.046;2024-03-02T15:59:54;45.08;;;24.65;;
31716;SDS011;18301;51.076;17.046;2024-03-02T16:04:56;42.45;;;23.02;;
31716;SDS011;18301;51.076;17.046;2024-03-02T16:09:57;43.97;;;25.17;;
31716;SDS011;18301;51.076;17.046;2024-03-02T16:14:59;44.60;;;24.17;;
31716;SDS011;18301;51.076;17.046;2024-03-02T16:20:01;44.85;;;24.08;;
31716;SDS011;18301;51.076;17.046;2024-03-02T16:25:07;43.88;;;24.67;;
31716;SDS011;18301;51.076;17.046;2024-03-02T16:30:09;51.78;;;27.38;;
31716;SDS011;18301;51.076;17.046;2024-03-02T16:35:11;47.10;;;26.00;;
31716;SDS011;18301;51.076;17.046;2024-03-02T16:40:13;43.03;;;24.63;;
31716;SDS011;18301;51.076;17.046;2024-03-02T16:45:15;42.35;;;25.13;;
31716;SDS011;18301;51.076;17.046;2024-03-02T16:50:16;43.53;;;25.50;;
31716;SDS011;18301;51.076;17.046;2024-03-02T16:55:18;46.22;;;26.33;;
31716;SDS011;18301;51.076;17.046;2024-03-02T17:00:20;47.75;;;26.77;;
31716;SDS011;18301;51.076;17.046;2024-03-02T17:05:22;42.50;;;24.40;;
31716;SDS011;18301;51.076;17.046;2024-03-02T17:10:24;46.55;;;26.95;;
31716;SDS011;18301;51.076;17.046;2024-03-02T17:15:25;49.80;;;28.05;;
31716;SDS011;18301;51.076;17.046;2024-03-02T17:20:28;46.47;;;26.15;;
31716;SDS011;18301;51.076;17.046;2024-03-02T17:25:29;58.38;;;30.70;;
31716;SDS011;18301;51.076;17.046;2024-03-02T17:30:31;58.53;;;32.50;;
31716;SDS011;18301;51.076;17.046;2024-03-02T17:35:33;61.67;;;33.65;;
31716;SDS011;18301;51.076;17.046;2024-03-02T17:40:36;56.00;;;31.80;;
31716;SDS011;18301;51.076;17.046;2024-03-02T17:45:38;56.33;;;31.48;;
31716;SDS011;18301;51.076;17.046;2024-03-02T17:50:43;59.03;;;31.30;;
31716;SDS011;18301;51.076;17.046;2024-03-02T17:55:44;58.53;;;32.08;;
31716;SDS011;18301;51.076;17.046;2024-03-02T18:00:46;57.80;;;31.08;;
31716;SDS011;18301;51.076;17.046;2024-03-02T18:05:48;57.22;;;30.48;;
31716;SDS011;18301;51.076;17.046;2024-03-02T18:10:50;49.75;;;28.52;;
31716;SDS011;18301;51.076;17.046;2024-03-02T18:15:51;55.10;;;30.15;;
31716;SDS011;18301;51.076;17.046;2024-03-02T18:20:54;51.35;;;28.23;;
31716;SDS011;18301;51.076;17.046;2024-03-02T18:25:56;49.70;;;28.50;;
31716;SDS011;18301;51.076;17.046;2024-03-02T18:30:57;51.90;;;28.20;;
31716;SDS011;18301;51.076;17.046;2024-03-02T18:36:00;50.58;;;25.88;;
31716;SDS011;18301;51.076;17.046;2024-03-02T18:41:01;43.30;;;25.02;;
31716;SDS011;18301;51.076;17.046;2024-03-02T18:46:06;39.00;;;21.55;;
31716;SDS011;18301;51.076;17.046;2024-03-02T18:51:08;42.00;;;23.20;;
31716;SDS011;18301;51.076;17.046;2024-03-02T18:56:12;37.47;;;21.25;;
31716;SDS011;18301;51.076;17.046;2024-03-02T19:01:14;36.72;;;20.65;;
31716;SDS011;18301;51.076;17.046;2024-03-02T19:06:17;35.45;;;18.67;;
31716;SDS011;18301;51.076;17.046;2024-03-02T19:11:19;36.03;;;19.23;;
31716;SDS011;18301;51.076;17.046;2024-03-02T19:16:21;32.08;;;17.08;;
31716;SDS011;18301;51.076;17.046;2024-03-02T19:21:24;32.65;;;17.73;;
31716;SDS011;18301;51.076;17.046;2024-03-02T19:26:25;31.40;;;17.35;;
31716;SDS011;18301;51.076;17.046;2024-03-02T19:31:27;26.70;;;15.70;;
31716;SDS011;18301;51.076;17.046;2024-03-02T19:36:29;26.77;;;16.13;;
31716;SDS011;18301;51.076;17.046;2024-03-02T19:41:30;24.52;;;15.05;;
31716;SDS011;18301;51.076;17.046;2024-03-02T19:46:32;25.25;;;15.02;;
31716;SDS011;18301;51.076;17.046;2024-03-02T19:51:34;25.95;;;14.80;;
31716;SDS011;18301;51.076;17.046;2024-03-02T19:56:36;28.33;;;14.90;;
31716;SDS011;18301;51.076;17.046;2024-03-02T20:01:38;23.80;;;13.88;;
31716;SDS011;18301;51.076;17.046;2024-03-02T20:06:42;26.00;;;15.35;;
31716;SDS011;18301;51.076;17.046;2024-03-02T20:11:43;24.30;;;15.10;;
31716;SDS011;18301;51.076;17.046;2024-03-02T20:16:46;26.42;;;15.23;;
31716;SDS011;18301;51.076;17.046;2024-03-02T20:21:47;28.35;;;16.10;;
31716;SDS011;18301;51.076;17.046;2024-03-02T20:26:49;24.88;;;14.85;;
31716;SDS011;18301;51.076;17.046;2024-03-02T20:31:51;29.98;;;15.55;;
31716;SDS011;18301;51.076;17.046;2024-03-02T20:36:53;28.48;;;16.02;;
31716;SDS011;18301;51.076;17.046;2024-03-02T20:41:54;24.38;;;14.57;;
31716;SDS011;18301;51.076;17.046;2024-03-02T20:46:56;24.60;;;14.77;;
31716;SDS011;18301;51.076;17.046;2024-03-02T20:51:58;25.63;;;14.55;;
31716;SDS011;18301;51.076;17.046;2024-03-02T20:57:01;22.83;;;13.00;;
31716;SDS011;18301;51.076;17.046;2024-03-02T21:02:07;22.23;;;13.48;;
31716;SDS011;18301;51.076;17.046;2024-03-02T21:07:09;23.15;;;14.52;;
31716;SDS011;18301;51.076;17.046;2024-03-02T21:12:10;25.05;;;15.02;;
31716;SDS011;18301;51.076;17.046;2024-03-02T21:17:12;27.52;;;15.90;;
31716;SDS011;18301;51.076;17.046;2024-03-02T21:22:14;27.70;;;17.30;;
31716;SDS011;18301;51.076;17.046;2024-03-02T21:27:16;29.02;;;17.58;;
31716;SDS011;18301;51.076;17.046;2024-03-02T21:32:21;29.35;;;18.33;;
31716;SDS011;18301;51.076;17.046;2024-03-02T21:37:23;35.40;;;19.27;;
31716;SDS011;18301;51.076;17.046;2024-03-02T21:42:24;30.40;;;19.10;;
31716;SDS011;18301;51.076;17.046;2024-03-02T21:47:26;33.40;;;19.38;;
31716;SDS011;18301;51.076;17.046;2024-03-02T21:52:28;29.42;;;18.30;;
31716;SDS011;18301;51.076;17.046;2024-03-02T21:57:29;31.25;;;19.08;;
31716;SDS011;18301;51.076;17.046;2024-03-02T22:02:31;37.17;;;19.42;;
31716;SDS011;18301;51.076;17.046;2024-03-02T22:07:33;34.72;;;20.25;;
31716;SDS011;18301;51.076;17.046;2024-03-02T22:12:35;32.08;;;19.08;;
31716;SDS011;18301;51.076;17.046;2024-03-02T22:17:37;35.78;;;19.70;;
31716;SDS011;18301;51.076;17.046;2024-03-02T22:22:38;32.17;;;18.55;;
31716;SDS011;18301;51.076;17.046;2024-03-02T22:27:42;31.95;;;19.55;;
31716;SDS011;18301;51.076;17.046;2024-03-02T22:32:44;33.38;;;19.58;;
31716;SDS011;18301;51.076;17.046;2024-03-02T22:37:45;30.88;;;17.88;;
31716;SDS011;18301;51.076;17.046;2024-03-02T22:42:47;30.63;;;18.13;;
31716;SDS011;18301;51.076;17.046;2024-03-02T22:47:49;30.73;;;17.60;;
31716;SDS011;18301;51.076;17.046;2024-03-02T22:52:52;27.98;;;17.23;;
31716;SDS011;18301;51.076;17.046;2024-03-02T22:57:53;30.83;;;18.27;;
31716;SDS011;18301;51.076;17.046;2024-03-02T23:02:58;33.60;;;18.38;;
31716;SDS011;18301;51.076;17.046;2024-03-02T23:07:59;37.70;;;19.70;;
31716;SDS011;18301;51.076;17.046;2024-03-02T23:13:01;34.00;;;19.25;;
31716;SDS011;18301;51.076;17.046;2024-03-02T23:18:03;32.83;;;18.60;;
31716;SDS011;18301;51.076;17.046;2024-03-02T23:23:05;31.95;;;19.35;;
31716;SDS011;18301;51.076;17.046;2024-03-02T23:28:07;36.60;;;20.80;;
31716;SDS011;18301;51.076;17.046;2024-03-02T23:33:09;35.35;;;21.25;;
31716;SDS011;18301;51.076;17.046;2024-03-02T23:38:11;37.28;;;22.02;;
31716;SDS011;18301;51.076;17.046;2024-03-02T23:43:13;39.47;;;23.35;;
31716;SDS011;18301;51.076;17.046;2024-03-02T23:48:15;37.35;;;18.10;;
31716;SDS011;18301;51.076;17.046;2024-03-02T23:53:16;39.05;;;22.92;;
31716;SDS011;18301;51.076;17.046;2024-03-02T23:58:18;41.33;;;23.83;;
